createdAt,value
2018-04-19T00:01:20.746Z,42.50
2018-04-19T00:03:48.522Z,42.00
2018-04-19T00:06:17.099Z,41.20
2018-04-19T00:08:45.613Z,39.28
2018-04-19T00:11:13.388Z,41.00
2018-04-19T00:13:41.206Z,42.22
2018-04-19T00:16:09.741Z,45.25
2018-04-19T00:18:37.501Z,39.88
2018-04-19T00:21:05.338Z,40.65
2018-04-19T00:23:33.085Z,39.08
2018-04-19T00:26:01.600Z,44.25
2018-04-19T00:28:30.193Z,42.05
2018-04-19T00:30:57.954Z,43.67
2018-04-19T00:33:25.716Z,47.58
2018-04-19T00:35:54.363Z,44.25
2018-04-19T00:38:22.151Z,47.85
2018-04-19T00:40:49.931Z,40.90
2018-04-19T00:43:17.745Z,49.53
2018-04-19T00:45:45.500Z,43.22
2018-04-19T00:48:14.027Z,41.20
2018-04-19T00:50:41.835Z,43.40
2018-04-19T00:53:09.629Z,49.00
2018-04-19T00:55:37.402Z,40.40
2018-04-19T00:58:05.228Z,43.60
2018-04-19T01:00:33.750Z,47.67
2018-04-19T01:03:01.512Z,40.90
2018-04-19T01:05:29.344Z,44.17
2018-04-19T01:07:57.101Z,45.12
2018-04-19T01:10:24.864Z,48.17
2018-04-19T01:12:52.684Z,45.10
2018-04-19T01:15:20.443Z,56.80
2018-04-19T01:17:48.213Z,47.65
2018-04-19T01:20:16.029Z,45.92
2018-04-19T01:22:43.778Z,44.72
2018-04-19T01:25:11.537Z,45.30
2018-04-19T01:27:39.372Z,44.65
2018-04-19T01:30:07.133Z,42.62
2018-04-19T01:32:34.892Z,47.03
2018-04-19T01:35:02.733Z,52.33
2018-04-19T01:37:30.506Z,47.00
2018-04-19T01:39:58.265Z,51.97
2018-04-19T01:42:26.089Z,52.28
2018-04-19T01:44:53.855Z,47.22
2018-04-19T01:47:21.627Z,48.90
2018-04-19T01:49:49.449Z,45.97
2018-04-19T01:52:17.985Z,47.67
2018-04-19T01:54:45.784Z,47.40
2018-04-19T01:57:14.360Z,47.90
2018-04-19T01:59:42.121Z,46.00
2018-04-19T02:02:09.904Z,42.95
2018-04-19T02:04:37.713Z,45.97
2018-04-19T02:07:05.516Z,44.28
2018-04-19T02:09:34.072Z,43.15
2018-04-19T02:12:01.892Z,39.17
2018-04-19T02:14:29.644Z,50.30
2018-04-19T02:16:57.400Z,40.85
2018-04-19T02:19:25.214Z,46.92
2018-04-19T02:21:52.970Z,46.78
2018-04-19T02:24:20.721Z,46.97
2018-04-19T02:26:48.528Z,47.25
2018-04-19T02:29:17.041Z,46.78
2018-04-19T02:31:44.801Z,44.78
2018-04-19T02:34:12.626Z,44.10
2018-04-19T02:36:40.390Z,42.22
2018-04-19T02:39:08.158Z,47.25
2018-04-19T02:41:36.738Z,48.17
2018-04-19T02:44:05.286Z,50.75
2018-04-19T02:46:33.046Z,50.50
2018-04-19T02:49:01.621Z,59.35
2018-04-19T02:51:29.385Z,54.00
2018-04-19T02:53:57.156Z,53.15
2018-04-19T02:56:24.969Z,52.67
2018-04-19T02:58:52.719Z,48.67
2018-04-19T03:01:21.232Z,52.53
2018-04-19T03:03:49.082Z,54.10
2018-04-19T03:06:16.844Z,48.15
2018-04-19T03:08:44.608Z,54.88
2018-04-19T03:11:12.417Z,47.62
2018-04-19T03:13:40.244Z,45.78
2018-04-19T03:16:08.009Z,46.83
2018-04-19T03:18:35.815Z,48.55
2018-04-19T03:21:03.587Z,42.67
2018-04-19T03:23:32.134Z,46.60
2018-04-19T03:25:59.944Z,49.47
2018-04-19T03:28:27.702Z,44.40
2018-04-19T03:30:56.217Z,49.85
2018-04-19T03:33:24.026Z,47.92
2018-04-19T03:35:51.790Z,48.17
2018-04-19T03:38:19.547Z,45.83
2018-04-19T03:40:47.378Z,41.47
2018-04-19T03:43:15.157Z,49.72
2018-04-19T03:45:42.910Z,41.08
2018-04-19T03:48:10.734Z,46.70
2018-04-19T03:50:38.481Z,47.97
2018-04-19T03:53:07.002Z,41.70
2018-04-19T03:55:34.809Z,43.00
2018-04-19T03:58:02.573Z,51.03
2018-04-19T04:00:31.112Z,46.28
2018-04-19T04:02:58.929Z,42.50
2018-04-19T04:05:27.448Z,41.97
2018-04-19T04:07:55.220Z,40.75
2018-04-19T04:10:23.044Z,42.60
2018-04-19T04:12:50.849Z,42.42
2018-04-19T04:15:18.609Z,45.50
2018-04-19T04:17:58.362Z,44.20
2018-04-19T04:20:37.894Z,43.10
2018-04-19T04:26:04.699Z,47.92
2018-04-19T04:28:32.540Z,43.03
2018-04-19T04:31:01.129Z,44.97
2018-04-19T04:33:28.941Z,39.03
2018-04-19T04:35:56.781Z,38.35
2018-04-19T04:38:24.547Z,39.63
2018-04-19T04:40:52.328Z,38.15
2018-04-19T04:43:20.147Z,39.92
2018-04-19T04:45:48.691Z,36.85
2018-04-19T04:48:16.456Z,36.40
2018-04-19T04:50:44.305Z,35.90
2018-04-19T04:53:12.091Z,39.42
2018-04-19T04:55:39.895Z,35.60
2018-04-19T04:58:07.728Z,40.53
2018-04-19T05:00:36.265Z,35.90
2018-04-19T05:03:04.059Z,36.72
2018-04-19T05:05:31.912Z,34.08
2018-04-19T05:07:59.681Z,32.95
2018-04-19T05:10:27.458Z,31.58
2018-04-19T05:12:56.053Z,32.25
2018-04-19T05:15:24.632Z,35.72
2018-04-19T05:17:53.166Z,38.40
2018-04-19T05:20:21.019Z,32.50
2018-04-19T05:22:48.808Z,34.53
2018-04-19T05:25:16.572Z,36.00
2018-04-19T05:27:44.511Z,37.40
2018-04-19T05:30:13.057Z,30.08
2018-04-19T05:32:40.820Z,31.60
2018-04-19T05:35:08.660Z,27.33
2018-04-19T05:37:37.204Z,28.52
2018-04-19T05:40:04.973Z,27.52
2018-04-19T05:42:33.571Z,35.05
2018-04-19T05:45:01.342Z,28.83
2018-04-19T05:47:29.881Z,32.05
2018-04-19T05:49:57.734Z,26.62
2018-04-19T05:52:25.513Z,29.45
2018-04-19T05:54:53.286Z,26.75
2018-04-19T05:57:22.637Z,28.50
2018-04-19T05:59:50.408Z,25.65
2018-04-19T06:02:18.186Z,27.30
2018-04-19T06:04:46.018Z,26.45
2018-04-19T06:07:13.788Z,26.90
2018-04-19T06:09:41.573Z,26.45
2018-04-19T06:12:09.432Z,185.37
2018-04-19T06:14:37.204Z,78.15
2018-04-19T06:17:04.984Z,35.80
2018-04-19T06:19:32.829Z,29.12
2018-04-19T06:22:00.637Z,92.93
2018-04-19T06:24:28.428Z,38.97
2018-04-19T06:26:56.261Z,26.67
2018-04-19T06:29:24.861Z,29.70
2018-04-19T06:31:52.644Z,29.83
2018-04-19T06:34:20.487Z,31.27
2018-04-19T06:36:48.271Z,27.67
2018-04-19T06:39:16.048Z,35.37
2018-04-19T06:41:43.889Z,27.70
2018-04-19T06:44:11.683Z,28.53
2018-04-19T06:46:39.465Z,26.93
2018-04-19T06:49:07.308Z,28.13
2018-04-19T06:51:35.110Z,28.70
2018-04-19T06:54:03.653Z,30.63
2018-04-19T06:56:31.509Z,30.60
2018-04-19T06:58:59.273Z,30.30
2018-04-19T07:01:27.047Z,27.20
2018-04-19T07:03:54.883Z,27.17
2018-04-19T07:06:22.644Z,31.70
2018-04-19T07:08:50.505Z,24.23
2018-04-19T07:11:18.348Z,24.53
2018-04-19T07:13:46.165Z,27.43
2018-04-19T07:16:13.943Z,22.90
2018-04-19T07:18:41.824Z,24.70
2018-04-19T07:21:10.361Z,24.20
2018-04-19T07:23:38.139Z,22.10
2018-04-19T07:26:05.992Z,21.50
2018-04-19T07:28:34.576Z,18.17
2018-04-19T07:31:02.346Z,18.30
2018-04-19T07:33:30.938Z,19.20
2018-04-19T07:35:59.510Z,17.10
2018-04-19T07:38:27.279Z,16.50
2018-04-19T07:40:55.117Z,19.20
2018-04-19T07:43:22.906Z,15.87
2018-04-19T07:45:50.692Z,15.13
2018-04-19T07:48:19.260Z,16.90
2018-04-19T07:50:47.812Z,14.80
2018-04-19T07:53:15.584Z,18.03
2018-04-19T07:55:43.409Z,16.67
2018-04-19T07:58:11.184Z,15.00
2018-04-19T08:00:38.948Z,16.83
2018-04-19T08:03:06.774Z,17.77
2018-04-19T08:05:34.553Z,16.80
2018-04-19T08:08:02.331Z,14.83
2018-04-19T08:10:30.173Z,13.80
2018-04-19T08:12:57.978Z,14.17
2018-04-19T08:15:25.754Z,14.40
2018-04-19T08:17:53.607Z,14.93
2018-04-19T08:20:21.397Z,18.63
2018-04-19T08:22:49.943Z,13.87
2018-04-19T08:25:17.782Z,13.37
2018-04-19T08:27:45.577Z,13.87
2018-04-19T08:30:13.362Z,14.80
2018-04-19T08:32:41.954Z,10.60
2018-04-19T08:35:09.784Z,9.77
2018-04-19T08:37:37.557Z,10.03
2018-04-19T08:40:05.433Z,7.73
2018-04-19T08:42:33.951Z,9.23
2018-04-19T08:45:01.749Z,11.40
2018-04-19T08:47:29.561Z,7.73
2018-04-19T08:49:57.379Z,11.73
2018-04-19T08:52:25.164Z,10.83
2018-04-19T08:54:53.753Z,7.63
2018-04-19T08:57:22.297Z,7.97
2018-04-19T08:59:50.087Z,8.47
2018-04-19T09:02:17.927Z,8.13
2018-04-19T09:04:45.701Z,10.67
2018-04-19T09:07:13.469Z,10.80
2018-04-19T09:09:42.055Z,8.43
2018-04-19T09:12:10.598Z,7.70
2018-04-19T09:14:38.371Z,11.77
2018-04-19T09:17:06.178Z,9.90
2018-04-19T09:19:34.055Z,9.43
2018-04-19T09:22:01.828Z,13.32
2018-04-19T09:24:29.669Z,8.38
2018-04-19T09:26:57.464Z,8.88
2018-04-19T09:29:25.285Z,11.48
2018-04-19T09:31:53.147Z,7.22
2018-04-19T09:34:21.681Z,9.30
2018-04-19T09:36:49.471Z,8.05
2018-04-19T09:39:18.056Z,7.35
2018-04-19T09:41:46.579Z,8.95
2018-04-19T09:44:14.342Z,8.30
2018-04-19T09:46:42.193Z,8.73
2018-04-19T09:49:09.988Z,10.30
2018-04-19T09:51:37.752Z,9.50
2018-04-19T09:54:05.717Z,7.72
2018-04-19T09:56:33.397Z,9.50
2018-04-19T09:59:12.044Z,9.65
2018-04-19T10:01:46.288Z,9.57
2018-04-19T10:04:14.172Z,8.50
2018-04-19T10:06:41.953Z,9.88
2018-04-19T10:09:09.717Z,10.38
2018-04-19T10:11:37.548Z,14.55
2018-04-19T10:14:05.317Z,12.27
2018-04-19T10:16:33.094Z,11.57
2018-04-19T10:19:00.927Z,8.27
2018-04-19T10:21:28.704Z,10.70
2018-04-19T10:23:56.505Z,11.32
2018-04-19T10:26:24.330Z,13.73
2018-04-19T10:28:52.099Z,8.77
2018-04-19T10:31:19.857Z,7.53
2018-04-19T10:33:47.736Z,7.87
2018-04-19T10:36:15.517Z,6.55
2018-04-19T10:38:43.267Z,7.03
2018-04-19T10:41:11.103Z,10.65
2018-04-19T10:43:38.853Z,7.55
2018-04-19T10:46:06.616Z,13.73
2018-04-19T10:48:34.434Z,4.47
2018-04-19T10:51:02.977Z,4.28
2018-04-19T10:53:30.730Z,5.00
2018-04-19T10:55:58.541Z,7.05
2018-04-19T10:58:27.092Z,6.07
2018-04-19T11:00:54.861Z,7.50
2018-04-19T11:03:22.685Z,5.32
2018-04-19T11:05:50.447Z,5.55
2018-04-19T11:08:18.199Z,9.50
2018-04-19T11:10:46.014Z,9.25
2018-04-19T11:13:13.782Z,5.47
2018-04-19T11:15:41.548Z,7.62
2018-04-19T11:18:09.369Z,5.00
2018-04-19T11:20:37.166Z,4.85
2018-04-19T11:23:04.969Z,5.95
2018-04-19T11:25:32.796Z,4.30
2018-04-19T11:28:00.566Z,13.05
2018-04-19T11:30:29.112Z,6.10
2018-04-19T11:32:56.920Z,6.50
2018-04-19T11:35:25.445Z,5.62
2018-04-19T11:37:54.020Z,6.60
2018-04-19T11:40:21.837Z,5.03
2018-04-19T11:42:50.368Z,5.78
2018-04-19T11:45:18.124Z,7.75
2018-04-19T11:47:45.940Z,7.97
2018-04-19T11:50:13.713Z,6.70
2018-04-19T11:52:42.248Z,7.12
2018-04-19T11:55:10.057Z,9.35
2018-04-19T11:57:38.584Z,3.60
2018-04-19T12:00:06.349Z,5.75
2018-04-19T12:02:34.171Z,8.35
2018-04-19T12:05:01.991Z,4.05
2018-04-19T12:07:29.751Z,5.45
2018-04-19T12:09:57.569Z,3.55
2018-04-19T12:12:25.340Z,4.78
2018-04-19T12:14:53.109Z,3.35
2018-04-19T12:17:20.924Z,5.95
2018-04-19T12:19:48.708Z,6.57
2018-04-19T12:22:16.526Z,5.10
2018-04-19T12:24:44.337Z,8.65
2018-04-19T12:27:12.101Z,4.80
2018-04-19T12:29:39.859Z,5.22
2018-04-19T12:32:07.701Z,5.90
2018-04-19T12:34:36.261Z,12.18
2018-04-19T12:37:04.023Z,3.60
2018-04-19T12:39:31.841Z,15.15
2018-04-19T12:41:59.610Z,7.50
2018-04-19T12:44:27.372Z,3.25
2018-04-19T12:46:55.204Z,3.85
2018-04-19T12:49:23.736Z,3.55
2018-04-19T12:51:51.499Z,7.85
2018-04-19T12:54:19.313Z,3.90
2018-04-19T12:56:47.075Z,5.37
2018-04-19T12:59:14.860Z,2.78
2018-04-19T13:01:42.685Z,6.43
2018-04-19T13:04:11.215Z,5.43
2018-04-19T13:06:38.994Z,5.12
2018-04-19T13:09:06.800Z,6.70
2018-04-19T13:11:34.568Z,4.30
2018-04-19T13:14:02.345Z,3.97
2018-04-19T13:16:30.162Z,3.22
2018-04-19T13:18:57.934Z,3.08
2018-04-19T13:21:26.455Z,4.15
2018-04-19T13:23:54.268Z,6.30
2018-04-19T13:26:22.796Z,4.55
2018-04-19T13:28:50.560Z,4.87
2018-04-19T13:31:18.369Z,4.28
2018-04-19T13:33:46.176Z,4.28
2018-04-19T13:36:13.934Z,4.95
2018-04-19T13:38:41.776Z,5.95
2018-04-19T13:41:10.314Z,7.20
2018-04-19T13:43:38.081Z,4.18
2018-04-19T13:46:05.891Z,6.68
2018-04-19T13:48:34.414Z,5.80
2018-04-19T13:51:02.191Z,4.35
2018-04-19T13:53:30.032Z,4.60
2018-04-19T13:55:57.790Z,6.43
2018-04-19T13:58:25.559Z,5.70
2018-04-19T14:00:53.367Z,5.40
2018-04-19T14:03:21.879Z,3.90
2018-04-19T14:05:49.669Z,3.95
2018-04-19T14:08:17.518Z,4.85
2018-04-19T14:10:45.271Z,4.10
2018-04-19T14:13:13.028Z,8.25
2018-04-19T14:15:40.860Z,5.57
2018-04-19T14:18:09.393Z,7.18
2018-04-19T14:20:37.152Z,5.82
2018-04-19T14:23:04.994Z,7.07
2018-04-19T14:25:32.760Z,9.23
2018-04-19T14:28:00.525Z,3.97
2018-04-19T14:30:28.348Z,6.65
2018-04-19T14:32:56.871Z,5.90
2018-04-19T14:35:24.628Z,5.12
2018-04-19T14:37:52.449Z,3.83
2018-04-19T14:40:20.209Z,4.87
2018-04-19T14:42:47.967Z,2.90
2018-04-19T14:45:15.777Z,3.28
2018-04-19T14:47:43.545Z,3.65
2018-04-19T14:50:11.309Z,6.03
2018-04-19T14:52:39.133Z,3.55
2018-04-19T14:55:07.660Z,4.72
2018-04-19T14:57:35.441Z,4.53
2018-04-19T15:00:03.280Z,3.47
2018-04-19T15:02:31.046Z,5.55
2018-04-19T15:04:58.837Z,3.67
2018-04-19T15:07:26.648Z,5.28
2018-04-19T15:09:54.430Z,7.25
2018-04-19T15:12:22.956Z,3.60
2018-04-19T15:14:50.792Z,3.95
2018-04-19T15:17:18.559Z,3.95
2018-04-19T15:19:46.336Z,2.30
2018-04-19T15:22:14.148Z,3.20
2018-04-19T15:24:41.929Z,6.07
2018-04-19T15:27:09.705Z,4.78
2018-04-19T15:29:37.529Z,3.25
2018-04-19T15:32:05.291Z,2.67
2018-04-19T15:34:33.065Z,3.70
2018-04-19T15:37:00.887Z,5.40
2018-04-19T15:39:28.677Z,5.65
2018-04-19T15:41:56.455Z,8.13
2018-04-19T15:44:24.294Z,5.60
2018-04-19T15:46:52.057Z,9.10
2018-04-19T15:49:19.833Z,4.37
2018-04-19T15:51:47.668Z,6.43
2018-04-19T15:54:16.188Z,8.95
2018-04-19T15:56:43.957Z,9.13
2018-04-19T15:59:11.911Z,4.32
2018-04-19T16:01:39.693Z,5.60
2018-04-19T16:04:07.498Z,9.25
2018-04-19T16:06:36.081Z,6.07
2018-04-19T16:09:04.637Z,4.62
2018-04-19T16:11:32.433Z,10.27
2018-04-19T16:14:01.009Z,4.97
2018-04-19T16:16:29.541Z,5.85
2018-04-19T16:18:57.354Z,7.68
2018-04-19T16:21:25.204Z,6.12
2018-04-19T16:23:52.990Z,3.70
2018-04-19T16:26:20.743Z,4.65
2018-04-19T16:28:49.320Z,4.07
2018-04-19T16:31:18.773Z,3.58
2018-04-19T16:33:46.565Z,6.97
2018-04-19T16:36:16.333Z,8.10
2018-04-19T16:38:44.195Z,6.18
2018-04-19T16:41:12.004Z,7.68
2018-04-19T16:43:39.847Z,4.62
2018-04-19T16:46:07.625Z,5.55
2018-04-19T16:48:35.393Z,4.65
2018-04-19T16:51:03.229Z,4.75
2018-04-19T16:53:30.996Z,6.57
2018-04-19T16:55:58.763Z,5.45
2018-04-19T16:58:26.584Z,9.43
2018-04-19T17:00:54.360Z,7.37
2018-04-19T17:03:22.111Z,8.40
2018-04-19T17:05:49.958Z,11.07
2018-04-19T17:08:17.740Z,6.97
2018-04-19T17:10:45.487Z,5.25
2018-04-19T17:13:13.344Z,4.07
2018-04-19T17:15:41.144Z,4.43
2018-04-19T17:18:08.934Z,4.30
2018-04-19T17:20:36.748Z,5.90
2018-04-19T17:23:04.507Z,6.97
2018-04-19T17:25:32.274Z,4.97
2018-04-19T17:28:00.182Z,4.37
2018-04-19T17:30:28.755Z,11.20
2018-04-19T17:32:56.515Z,8.52
2018-04-19T17:35:25.399Z,8.70
2018-04-19T17:37:53.160Z,5.72
2018-04-19T17:40:20.922Z,6.30
2018-04-19T17:42:48.757Z,6.87
2018-04-19T17:45:16.516Z,6.35
2018-04-19T17:47:44.287Z,10.07
2018-04-19T17:50:12.099Z,4.70
2018-04-19T17:52:39.863Z,7.80
2018-04-19T17:55:07.653Z,5.78
2018-04-19T17:57:35.493Z,7.72
2018-04-19T18:00:04.039Z,8.13
2018-04-19T18:02:31.807Z,4.85
2018-04-19T18:04:59.620Z,5.60
2018-04-19T18:07:27.378Z,9.55
2018-04-19T18:09:55.181Z,7.87
2018-04-19T18:12:23.016Z,5.55
2018-04-19T18:14:50.765Z,6.28
2018-04-19T18:17:19.286Z,7.28
2018-04-19T18:19:47.141Z,6.50
2018-04-19T18:22:14.916Z,7.30
2018-04-19T18:24:42.675Z,7.43
2018-04-19T18:27:10.484Z,11.52
2018-04-19T18:29:39.000Z,9.02
2018-04-19T18:32:06.753Z,6.00
2018-04-19T18:34:34.578Z,9.20
2018-04-19T18:37:02.347Z,7.68
2018-04-19T18:39:30.870Z,9.38
2018-04-19T18:41:58.688Z,11.18
2018-04-19T18:44:27.219Z,13.75
2018-04-19T18:46:54.984Z,7.40
2018-04-19T18:49:22.784Z,11.55
2018-04-19T18:51:50.544Z,8.13
2018-04-19T18:54:18.314Z,13.50
2018-04-19T18:56:46.896Z,11.90
2018-04-19T18:59:15.520Z,10.65
2018-04-19T19:01:43.279Z,11.70
2018-04-19T19:04:11.097Z,9.57
2018-04-19T19:06:38.864Z,13.48
2018-04-19T19:09:07.405Z,10.10
2018-04-19T19:11:35.228Z,11.02
2018-04-19T19:14:02.985Z,12.27
2018-04-19T19:16:31.513Z,12.77
2018-04-19T19:19:11.161Z,12.88
2018-04-19T19:21:38.971Z,11.27
2018-04-19T19:24:07.508Z,11.82
2018-04-19T19:26:35.340Z,11.60
2018-04-19T19:29:03.120Z,13.77
2018-04-19T19:31:30.891Z,15.40
2018-04-19T19:33:58.711Z,11.65
2018-04-19T19:36:26.469Z,10.38
2018-04-19T19:38:54.228Z,10.77
2018-04-19T19:41:22.048Z,9.38
2018-04-19T19:43:49.804Z,10.25
2018-04-19T19:46:17.556Z,11.27
2018-04-19T19:48:45.360Z,9.55
2018-04-19T19:51:13.904Z,11.70
2018-04-19T19:53:41.748Z,10.10
2018-04-19T19:56:09.581Z,11.43
2018-04-19T19:58:37.332Z,10.30
2018-04-19T20:01:05.869Z,11.55
2018-04-19T20:03:33.717Z,10.70
2018-04-19T20:06:01.488Z,10.68
2018-04-19T20:08:29.243Z,11.12
2018-04-19T20:10:57.080Z,12.60
2018-04-19T20:13:24.836Z,9.93
2018-04-19T20:15:53.364Z,10.93
2018-04-19T20:18:21.190Z,10.05
2018-04-19T20:20:48.961Z,11.07
2018-04-19T20:23:16.750Z,14.87
2018-04-19T20:25:44.567Z,14.07
2018-04-19T20:28:12.351Z,13.70
2018-04-19T20:30:40.119Z,10.98
2018-04-19T20:33:09.011Z,16.30
2018-04-19T20:35:37.673Z,10.50
2018-04-19T20:38:05.478Z,12.05
2018-04-19T20:40:33.285Z,13.27
2018-04-19T20:43:01.835Z,12.63
2018-04-19T20:45:30.386Z,14.90
2018-04-19T20:47:58.219Z,14.80
2018-04-19T20:50:26.759Z,14.80
2018-04-19T20:52:54.528Z,14.18
2018-04-19T20:55:22.360Z,12.68
2018-04-19T20:57:50.145Z,19.73
2018-04-19T21:00:17.911Z,13.90
2018-04-19T21:02:45.728Z,14.20
2018-04-19T21:05:13.487Z,14.27
2018-04-19T21:07:41.273Z,15.65
2018-04-19T21:10:09.111Z,15.23
2018-04-19T21:12:36.912Z,13.73
2018-04-19T21:15:04.694Z,13.15
2018-04-19T21:17:32.512Z,11.73
2018-04-19T21:20:00.308Z,12.20
2018-04-19T21:22:28.075Z,15.77
2018-04-19T21:24:55.904Z,13.75
2018-04-19T21:27:23.712Z,16.15
2018-04-19T21:29:52.272Z,14.15
2018-04-19T21:32:20.088Z,13.60
2018-04-19T21:34:47.896Z,16.55
2018-04-19T21:37:15.656Z,19.45
2018-04-19T21:39:43.466Z,14.52
2018-04-19T21:42:11.236Z,18.75
2018-04-19T21:44:39.008Z,15.55
2018-04-19T21:47:06.821Z,15.02
2018-04-19T21:49:34.581Z,16.90
2018-04-19T21:52:02.339Z,14.07
2018-04-19T21:54:30.930Z,18.35
2018-04-19T21:56:58.700Z,19.00
2018-04-19T21:59:27.244Z,15.10
2018-04-19T22:01:55.059Z,18.40
2018-04-19T22:04:22.835Z,18.25
2018-04-19T22:06:50.604Z,17.37
2018-04-19T22:09:18.431Z,15.45
2018-04-19T22:11:46.965Z,17.58
2018-04-19T22:14:14.731Z,18.75
2018-04-19T22:16:54.411Z,16.67
2018-04-19T22:19:22.955Z,15.90
2018-04-19T22:21:50.777Z,16.92
2018-04-19T22:24:18.553Z,15.43
2018-04-19T22:26:46.417Z,15.10
2018-04-19T22:29:14.250Z,18.75
2018-04-19T22:31:42.841Z,20.42
2018-04-19T22:34:11.368Z,19.20
2018-04-19T22:36:39.184Z,16.95
2018-04-19T22:39:07.713Z,20.85
2018-04-19T22:41:35.480Z,20.25
2018-04-19T22:44:03.318Z,20.98
2018-04-19T22:46:31.085Z,18.00
2018-04-19T22:48:58.857Z,19.20
2018-04-19T22:51:26.693Z,18.87
2018-04-19T22:53:54.452Z,25.30
2018-04-19T22:56:22.221Z,20.73
2018-04-19T22:58:50.051Z,16.60
2018-04-19T23:01:18.585Z,18.23
2018-04-19T23:03:46.358Z,17.80
2018-04-19T23:06:14.182Z,21.77
2018-04-19T23:08:41.943Z,21.10
2018-04-19T23:11:09.713Z,17.00
2018-04-19T23:13:37.543Z,18.30
2018-04-19T23:16:06.077Z,17.25
2018-04-19T23:18:33.879Z,21.50
2018-04-19T23:21:02.471Z,17.62
2018-04-19T23:23:31.017Z,23.98
2018-04-19T23:25:58.789Z,20.62
2018-04-19T23:28:26.614Z,18.90
2018-04-19T23:30:54.393Z,18.05
2018-04-19T23:33:22.161Z,17.92
2018-04-19T23:35:50.009Z,14.48
2018-04-19T23:38:17.777Z,19.65
2018-04-19T23:40:45.554Z,14.43
2018-04-19T23:43:13.379Z,14.38
2018-04-19T23:45:41.145Z,16.52
2018-04-19T23:48:08.909Z,16.50
2018-04-19T23:50:36.729Z,13.62
2018-04-19T23:53:05.285Z,14.25
2018-04-19T23:55:33.076Z,13.30
2018-04-19T23:58:01.677Z,15.30
